createdAt,value
2023-04-09T00:02:14.792Z,3.10
2023-04-09T00:04:41.403Z,3.03
2023-04-09T00:07:08.374Z,3.40
2023-04-09T00:09:35.238Z,3.13
2023-04-09T00:12:02.198Z,3.40
2023-04-09T00:14:29.223Z,3.35
2023-04-09T00:16:56.301Z,3.42
2023-04-09T00:19:22.800Z,3.00
2023-04-09T00:21:49.545Z,3.13
2023-04-09T00:24:16.223Z,3.03
2023-04-09T00:26:42.773Z,3.00
2023-04-09T00:29:09.532Z,3.10
2023-04-09T00:31:36.265Z,3.10
2023-04-09T00:34:02.828Z,3.10
2023-04-09T00:36:29.475Z,3.38
2023-04-09T00:38:56.763Z,3.20
2023-04-09T00:41:23.302Z,2.90
2023-04-09T00:43:49.999Z,3.67
2023-04-09T00:46:18.192Z,2.85
2023-04-09T00:48:45.088Z,3.28
2023-04-09T00:51:11.740Z,3.08
2023-04-09T00:53:38.368Z,3.20
2023-04-09T00:56:06.101Z,3.47
2023-04-09T00:58:32.759Z,2.92
2023-04-09T01:03:41.980Z,3.00
2023-04-09T01:06:34.483Z,3.25
2023-04-09T01:09:09.406Z,3.15
2023-04-09T01:11:46.512Z,2.97
2023-04-09T01:14:27.345Z,3.08
2023-04-09T01:17:01.042Z,3.28
2023-04-09T01:19:30.805Z,3.17
2023-04-09T01:21:58.061Z,3.50
2023-04-09T01:24:49.492Z,3.20
2023-04-09T01:27:16.321Z,2.85
2023-04-09T01:29:47.294Z,3.63
2023-04-09T01:34:42.725Z,3.35
2023-04-09T01:37:09.629Z,3.25
2023-04-09T01:39:37.816Z,3.22
2023-04-09T01:42:09.616Z,3.72
2023-04-09T01:44:39.403Z,3.22
2023-04-09T01:47:08.367Z,3.35
2023-04-09T01:49:36.218Z,3.50
2023-04-09T01:52:03.212Z,3.92
2023-04-09T01:54:29.766Z,3.50
2023-04-09T01:56:57.763Z,3.33
2023-04-09T01:59:24.647Z,3.42
2023-04-09T02:01:59.980Z,3.33
2023-04-09T02:04:34.399Z,3.55
2023-04-09T02:07:12.458Z,3.53
2023-04-09T02:09:41.871Z,3.28
2023-04-09T02:12:13.707Z,3.50
2023-04-09T02:14:41.371Z,3.33
2023-04-09T02:17:08.320Z,3.65
2023-04-09T02:19:42.132Z,3.85
2023-04-09T02:22:09.576Z,3.60
2023-04-09T02:24:36.563Z,3.40
2023-04-09T02:27:04.096Z,3.67
2023-04-09T02:29:31.604Z,3.33
2023-04-09T02:31:58.143Z,3.60
2023-04-09T02:34:24.898Z,3.42
2023-04-09T02:36:51.721Z,3.83
2023-04-09T02:39:18.526Z,4.07
2023-04-09T02:41:45.125Z,3.33
2023-04-09T02:44:11.788Z,4.00
2023-04-09T02:46:41.791Z,3.55
2023-04-09T02:49:08.357Z,3.53
2023-04-09T02:51:37.934Z,3.40
2023-04-09T02:54:04.705Z,4.03
2023-04-09T02:56:31.245Z,4.25
2023-04-09T02:58:58.288Z,3.92
2023-04-09T03:01:24.926Z,4.03
2023-04-09T03:03:51.594Z,3.58
2023-04-09T03:06:18.730Z,3.53
2023-04-09T03:08:45.305Z,3.95
2023-04-09T03:11:11.836Z,4.03
2023-04-09T03:13:38.552Z,4.47
2023-04-09T03:16:05.718Z,3.95
2023-04-09T03:18:32.392Z,4.30
2023-04-09T03:20:59.199Z,3.88
2023-04-09T03:23:25.753Z,3.92
2023-04-09T03:26:04.013Z,4.10
2023-04-09T03:28:30.733Z,4.20
2023-04-09T03:30:57.885Z,3.47
2023-04-09T03:33:25.795Z,3.53
2023-04-09T03:35:52.782Z,3.47
2023-04-09T03:38:19.745Z,3.40
2023-04-09T03:40:46.689Z,3.53
2023-04-09T03:43:13.221Z,3.60
2023-04-09T03:45:39.749Z,3.58
2023-04-09T03:48:06.508Z,4.00
2023-04-09T03:50:38.410Z,3.90
2023-04-09T03:53:04.966Z,3.67
2023-04-09T03:55:31.612Z,3.80
2023-04-09T03:57:58.185Z,3.72
2023-04-09T04:00:24.739Z,4.18
2023-04-09T04:02:52.443Z,3.97
2023-04-09T04:05:19.166Z,4.60
2023-04-09T04:07:45.913Z,4.50
2023-04-09T04:10:12.665Z,4.18
2023-04-09T04:12:39.179Z,4.40
2023-04-09T04:15:06.181Z,4.65
2023-04-09T04:17:32.847Z,3.92
2023-04-09T04:19:59.520Z,4.22
2023-04-09T04:22:26.436Z,4.35
2023-04-09T04:24:53.145Z,4.47
2023-04-09T04:27:19.697Z,4.72
2023-04-09T04:29:46.234Z,4.45
2023-04-09T04:32:13.085Z,4.38
2023-04-09T04:34:39.730Z,4.10
2023-04-09T04:37:06.312Z,4.20
2023-04-09T04:39:33.064Z,4.53
2023-04-09T04:41:59.553Z,4.20
2023-04-09T04:44:26.203Z,4.22
2023-04-09T04:46:52.856Z,4.38
2023-04-09T04:49:19.407Z,4.53
2023-04-09T04:51:45.989Z,3.92
2023-04-09T04:54:12.713Z,4.50
2023-04-09T04:56:39.310Z,4.50
2023-04-09T04:59:06.068Z,4.03
2023-04-09T05:01:32.857Z,4.43
2023-04-09T05:03:59.470Z,4.85
2023-04-09T05:06:27.984Z,4.38
2023-04-09T05:08:58.129Z,4.20
2023-04-09T05:11:25.487Z,4.38
2023-04-09T05:13:52.185Z,4.53
2023-04-09T05:16:20.383Z,4.35
2023-04-09T05:18:47.293Z,4.60
2023-04-09T05:21:13.956Z,4.85
2023-04-09T05:23:40.946Z,4.32
2023-04-09T05:26:07.450Z,4.90
2023-04-09T05:28:34.162Z,4.70
2023-04-09T05:31:01.105Z,4.60
2023-04-09T05:33:27.642Z,3.95
2023-04-09T05:35:54.411Z,4.72
2023-04-09T05:38:21.231Z,4.75
2023-04-09T05:40:49.019Z,5.13
2023-04-09T05:43:15.687Z,4.82
2023-04-09T05:45:42.609Z,4.57
2023-04-09T05:48:09.654Z,4.63
2023-04-09T05:50:47.444Z,4.97
2023-04-09T05:53:21.250Z,4.75
2023-04-09T05:55:49.501Z,6.05
2023-04-09T05:58:16.167Z,5.00
2023-04-09T06:00:42.833Z,4.70
2023-04-09T06:03:09.955Z,4.65
2023-04-09T06:05:36.884Z,4.68
2023-04-09T06:08:03.596Z,4.47
2023-04-09T06:10:32.716Z,5.32
2023-04-09T06:12:59.260Z,5.40
2023-04-09T06:15:25.968Z,5.28
2023-04-09T06:17:52.755Z,4.97
2023-04-09T06:20:19.582Z,4.97
2023-04-09T06:22:46.529Z,5.20
2023-04-09T06:25:13.212Z,5.32
2023-04-09T06:27:39.753Z,5.32
2023-04-09T06:30:07.058Z,5.38
2023-04-09T06:32:37.711Z,5.43
2023-04-09T06:35:11.067Z,5.13
2023-04-09T06:37:37.780Z,5.10
2023-04-09T06:40:04.716Z,5.43
2023-04-09T06:42:31.700Z,5.28
2023-04-09T06:44:58.429Z,5.03
2023-04-09T06:47:25.069Z,4.70
2023-04-09T06:49:51.693Z,4.85
2023-04-09T06:52:18.378Z,5.35
2023-04-09T06:54:46.178Z,5.20
2023-04-09T06:57:12.854Z,5.15
2023-04-09T06:59:39.660Z,5.90
2023-04-09T07:02:06.787Z,5.63
2023-04-09T07:04:33.678Z,5.72
2023-04-09T07:07:00.782Z,5.80
2023-04-09T07:09:27.392Z,5.75
2023-04-09T07:11:53.994Z,5.72
2023-04-09T07:14:20.765Z,5.40
2023-04-09T07:16:47.335Z,5.40
2023-04-09T07:19:14.062Z,5.43
2023-04-09T07:21:40.807Z,5.32
2023-04-09T07:24:07.294Z,6.05
2023-04-09T07:26:33.912Z,5.30
2023-04-09T07:29:00.594Z,5.57
2023-04-09T07:31:27.169Z,5.65
2023-04-09T07:33:54.064Z,5.07
2023-04-09T07:36:21.299Z,5.50
2023-04-09T07:38:47.871Z,5.57
2023-04-09T07:41:14.574Z,5.78
2023-04-09T07:43:41.638Z,5.28
2023-04-09T07:46:08.171Z,5.47
2023-04-09T07:48:34.742Z,5.80
2023-04-09T07:51:01.457Z,5.55
2023-04-09T07:53:28.495Z,5.93
2023-04-09T07:55:55.004Z,6.18
2023-04-09T07:58:21.776Z,6.05
2023-04-09T08:00:48.655Z,5.85
2023-04-09T08:03:15.794Z,6.10
2023-04-09T08:05:42.977Z,5.88
2023-04-09T08:08:09.474Z,5.30
2023-04-09T08:10:36.121Z,5.63
2023-04-09T08:13:02.918Z,5.00
2023-04-09T08:15:29.435Z,5.55
2023-04-09T08:17:56.252Z,5.13
2023-04-09T08:20:23.020Z,5.38
2023-04-09T08:22:49.595Z,5.80
2023-04-09T08:25:16.085Z,5.22
2023-04-09T08:27:42.944Z,5.80
2023-04-09T08:30:10.089Z,5.05
2023-04-09T08:32:36.916Z,5.13
2023-04-09T08:35:03.710Z,5.38
2023-04-09T08:37:30.252Z,5.70
2023-04-09T08:39:56.765Z,5.28
2023-04-09T08:42:25.819Z,5.75
2023-04-09T08:44:52.440Z,5.55
2023-04-09T08:47:20.762Z,4.78
2023-04-09T08:49:49.247Z,4.82
2023-04-09T08:52:17.761Z,5.07
2023-04-09T08:54:44.419Z,5.47
2023-04-09T08:57:11.111Z,4.53
2023-04-09T08:59:38.018Z,5.30
2023-04-09T09:02:11.866Z,5.22
2023-04-09T09:04:49.426Z,4.72
2023-04-09T09:09:55.075Z,5.15
2023-04-09T09:12:39.201Z,4.93
2023-04-09T09:15:27.387Z,4.60
2023-04-09T09:17:56.538Z,4.63
2023-04-09T09:20:23.600Z,4.88
2023-04-09T09:22:55.414Z,4.70
2023-04-09T09:25:26.431Z,4.18
2023-04-09T09:27:54.205Z,4.53
2023-04-09T09:30:22.858Z,4.15
2023-04-09T09:32:53.830Z,4.30
2023-04-09T09:35:20.728Z,3.95
2023-04-09T09:37:47.322Z,4.63
2023-04-09T09:40:28.029Z,4.43
2023-04-09T09:42:58.205Z,4.82
2023-04-09T09:45:26.151Z,4.45
2023-04-09T09:47:54.051Z,4.75
2023-04-09T09:50:25.242Z,4.20
2023-04-09T09:52:58.951Z,4.00
2023-04-09T09:55:30.436Z,4.45
2023-04-09T09:57:58.616Z,3.83
2023-04-09T10:00:26.278Z,4.22
2023-04-09T10:03:25.039Z,3.85
2023-04-09T10:05:53.617Z,4.30
2023-04-09T10:08:22.375Z,5.00
2023-04-09T10:10:50.291Z,4.50
2023-04-09T10:13:24.971Z,4.85
2023-04-09T10:15:52.211Z,4.32
2023-04-09T10:18:19.246Z,4.30
2023-04-09T10:20:58.929Z,4.10
2023-04-09T10:23:37.259Z,4.72
2023-04-09T10:26:06.061Z,4.40
2023-04-09T10:28:32.962Z,4.40
2023-04-09T10:30:59.969Z,4.50
2023-04-09T10:33:28.238Z,4.03
2023-04-09T10:35:59.766Z,4.28
2023-04-09T10:38:41.130Z,3.65
2023-04-09T10:41:08.481Z,3.58
2023-04-09T10:43:36.938Z,3.80
2023-04-09T10:46:06.565Z,3.50
2023-04-09T10:48:35.064Z,3.50
2023-04-09T10:51:05.534Z,3.78
2023-04-09T10:53:33.250Z,3.78
2023-04-09T10:56:00.059Z,3.80
2023-04-09T10:58:27.103Z,4.32
2023-04-09T11:00:54.371Z,4.20
2023-04-09T11:03:33.075Z,3.78
2023-04-09T11:06:02.545Z,4.07
2023-04-09T11:08:31.550Z,4.15
2023-04-09T11:11:01.358Z,4.10
2023-04-09T11:13:29.901Z,3.75
2023-04-09T11:15:57.289Z,4.18
2023-04-09T11:18:26.464Z,4.50
2023-04-09T11:20:57.422Z,6.55
2023-04-09T11:23:25.044Z,3.50
2023-04-09T11:25:52.379Z,4.13
2023-04-09T11:28:19.837Z,3.80
2023-04-09T11:30:47.073Z,3.78
2023-04-09T11:33:14.400Z,3.80
2023-04-09T11:35:41.279Z,3.95
2023-04-09T11:38:09.447Z,3.40
2023-04-09T11:40:37.023Z,3.90
2023-04-09T11:43:04.020Z,3.50
2023-04-09T11:45:32.009Z,3.80
2023-04-09T11:47:59.261Z,4.10
2023-04-09T11:50:26.230Z,3.80
2023-04-09T11:52:52.773Z,4.07
2023-04-09T11:55:26.914Z,3.63
2023-04-09T11:57:57.597Z,3.97
2023-04-09T12:03:03.171Z,4.30
2023-04-09T12:05:32.421Z,3.72
2023-04-09T12:08:01.314Z,3.53
2023-04-09T12:10:29.983Z,3.95
2023-04-09T12:13:05.722Z,3.70
2023-04-09T12:15:37.406Z,3.65
2023-04-09T12:18:07.805Z,4.20
2023-04-09T12:20:37.322Z,3.42
2023-04-09T12:23:05.872Z,3.13
2023-04-09T12:25:36.929Z,3.60
2023-04-09T12:28:04.895Z,4.15
2023-04-09T12:30:32.475Z,3.28
2023-04-09T12:32:59.810Z,3.42
2023-04-09T12:35:26.960Z,3.22
2023-04-09T12:37:53.841Z,2.97
2023-04-09T12:40:21.005Z,3.20
2023-04-09T12:42:47.936Z,2.70
2023-04-09T12:45:16.929Z,2.67
2023-04-09T12:47:44.375Z,2.88
2023-04-09T12:50:12.232Z,2.63
2023-04-09T12:52:39.171Z,2.80
2023-04-09T12:55:06.807Z,2.50
2023-04-09T12:57:34.068Z,2.35
2023-04-09T13:00:01.010Z,2.95
2023-04-09T13:02:27.797Z,2.70
2023-04-09T13:04:54.488Z,2.95
2023-04-09T13:07:21.189Z,2.90
2023-04-09T13:09:50.447Z,2.33
2023-04-09T13:12:17.448Z,2.47
2023-04-09T13:14:46.662Z,2.15
2023-04-09T13:17:13.604Z,2.45
2023-04-09T13:19:42.566Z,2.15
2023-04-09T13:22:09.629Z,2.22
2023-04-09T13:24:36.573Z,2.50
2023-04-09T13:27:04.677Z,1.92
2023-04-09T13:29:32.124Z,2.10
2023-04-09T13:31:58.928Z,1.75
2023-04-09T13:34:25.444Z,1.95
2023-04-09T13:36:52.146Z,1.55
2023-04-09T13:39:18.772Z,1.80
2023-04-09T13:41:45.417Z,1.67
2023-04-09T13:44:12.476Z,2.00
2023-04-09T13:46:39.336Z,1.48
2023-04-09T13:49:06.014Z,1.63
2023-04-09T13:51:33.396Z,1.55
2023-04-09T13:54:00.072Z,1.60
2023-04-09T13:56:27.550Z,1.40
2023-04-09T13:58:54.741Z,1.80
2023-04-09T14:01:21.643Z,1.70
2023-04-09T14:03:48.523Z,1.30
2023-04-09T14:06:15.471Z,1.42
2023-04-09T14:08:42.113Z,1.30
2023-04-09T14:11:08.655Z,1.27
2023-04-09T14:13:35.486Z,1.30
2023-04-09T14:16:02.253Z,1.20
2023-04-09T14:18:28.780Z,1.23
2023-04-09T14:20:55.553Z,1.02
2023-04-09T14:23:22.344Z,1.02
2023-04-09T14:25:48.931Z,0.93
2023-04-09T14:28:15.747Z,1.23
2023-04-09T14:30:42.337Z,1.20
2023-04-09T14:33:09.096Z,1.00
2023-04-09T14:35:36.157Z,1.33
2023-04-09T14:38:05.679Z,1.10
2023-04-09T14:40:32.626Z,1.10
2023-04-09T14:43:00.047Z,1.60
2023-04-09T14:45:27.749Z,1.38
2023-04-09T14:47:55.956Z,1.60
2023-04-09T14:50:22.844Z,1.60
2023-04-09T14:52:49.597Z,1.20
2023-04-09T14:55:16.266Z,1.33
2023-04-09T14:57:43.201Z,1.73
2023-04-09T15:00:11.519Z,1.50
2023-04-09T15:02:41.578Z,1.70
2023-04-09T15:05:09.082Z,1.63
2023-04-09T15:07:35.821Z,1.50
2023-04-09T15:10:02.631Z,1.45
2023-04-09T15:12:30.840Z,1.70
2023-04-09T15:14:57.578Z,1.60
2023-04-09T15:17:26.586Z,1.42
2023-04-09T15:19:54.205Z,1.33
2023-04-09T15:22:21.442Z,1.33
2023-04-09T15:24:48.036Z,1.40
2023-04-09T15:27:15.298Z,1.63
2023-04-09T15:29:41.994Z,1.63
2023-04-09T15:32:08.529Z,1.50
2023-04-09T15:34:35.681Z,1.55
2023-04-09T15:37:02.193Z,1.40
2023-04-09T15:39:28.877Z,1.35
2023-04-09T15:41:57.921Z,1.38
2023-04-09T15:44:25.985Z,1.67
2023-04-09T15:46:52.602Z,1.75
2023-04-09T15:49:19.776Z,1.60
2023-04-09T15:51:46.457Z,1.35
2023-04-09T15:54:13.164Z,1.60
2023-04-09T15:56:40.481Z,1.65
2023-04-09T15:59:08.414Z,1.63
2023-04-09T16:01:36.379Z,1.50
2023-04-09T16:04:04.568Z,1.52
2023-04-09T16:06:31.873Z,1.60
2023-04-09T16:08:58.609Z,1.63
2023-04-09T16:11:26.140Z,1.83
2023-04-09T16:13:52.827Z,1.70
2023-04-09T16:16:19.940Z,2.05
2023-04-09T16:18:46.618Z,1.90
2023-04-09T16:21:13.228Z,1.88
2023-04-09T16:23:40.008Z,1.90
2023-04-09T16:26:07.170Z,2.13
2023-04-09T16:28:33.740Z,2.20
2023-04-09T16:31:00.452Z,2.17
2023-04-09T16:33:27.329Z,1.83
2023-04-09T16:35:53.938Z,2.13
2023-04-09T16:38:20.978Z,1.83
2023-04-09T16:40:47.756Z,1.90
2023-04-09T16:43:14.335Z,2.22
2023-04-09T16:45:40.915Z,1.92
2023-04-09T16:48:12.346Z,2.15
2023-04-09T16:50:39.880Z,2.10
2023-04-09T16:53:06.705Z,2.05
2023-04-09T16:55:34.324Z,2.13
2023-04-09T16:58:01.046Z,1.95
2023-04-09T17:00:27.788Z,2.08
2023-04-09T17:02:55.839Z,2.00
2023-04-09T17:05:22.871Z,2.08
2023-04-09T17:07:49.560Z,2.17
2023-04-09T17:10:16.430Z,1.90
2023-04-09T17:12:43.011Z,2.25
2023-04-09T17:15:10.250Z,2.25
2023-04-09T17:17:37.590Z,2.25
2023-04-09T17:20:04.603Z,2.13
2023-04-09T17:22:31.451Z,2.03
2023-04-09T17:24:58.271Z,2.30
2023-04-09T17:27:24.797Z,2.00
2023-04-09T17:29:51.846Z,2.50
2023-04-09T17:32:18.911Z,2.20
2023-04-09T17:34:49.562Z,2.10
2023-04-09T17:37:16.386Z,2.13
2023-04-09T17:39:43.084Z,2.13
2023-04-09T17:42:11.870Z,1.95
2023-04-09T17:44:38.748Z,2.03
2023-04-09T17:47:07.555Z,2.22
2023-04-09T17:49:34.623Z,2.30
2023-04-09T17:52:01.359Z,2.05
2023-04-09T17:54:33.666Z,2.10
2023-04-09T17:57:01.610Z,2.10
2023-04-09T17:59:28.999Z,1.75
2023-04-09T18:01:56.771Z,2.08
2023-04-09T18:04:24.440Z,2.13
2023-04-09T18:06:51.511Z,1.88
2023-04-09T18:09:19.215Z,2.13
2023-04-09T18:11:46.445Z,1.95
2023-04-09T18:14:13.210Z,2.45
2023-04-09T18:16:40.395Z,2.40
2023-04-09T18:19:07.474Z,2.72
2023-04-09T18:21:36.601Z,2.33
2023-04-09T18:24:03.916Z,2.67
2023-04-09T18:26:31.366Z,2.10
2023-04-09T18:29:00.552Z,2.00
2023-04-09T18:31:28.446Z,2.40
2023-04-09T18:33:55.324Z,2.50
2023-04-09T18:36:22.314Z,2.50
2023-04-09T18:38:49.099Z,2.65
2023-04-09T18:41:23.360Z,2.53
2023-04-09T18:43:50.199Z,2.28
2023-04-09T18:46:16.851Z,2.42
2023-04-09T18:48:44.052Z,2.72
2023-04-09T18:51:11.382Z,2.90
2023-04-09T18:53:37.959Z,2.92
2023-04-09T18:56:04.719Z,2.78
2023-04-09T18:58:31.511Z,2.90
2023-04-09T19:00:58.304Z,2.85
2023-04-09T19:03:25.414Z,2.90
2023-04-09T19:05:53.318Z,3.22
2023-04-09T19:08:20.814Z,2.58
2023-04-09T19:10:47.849Z,3.10
2023-04-09T19:13:14.538Z,2.85
2023-04-09T19:15:41.026Z,2.80
2023-04-09T19:18:07.803Z,2.88
2023-04-09T19:20:34.454Z,3.95
2023-04-09T19:23:01.063Z,3.15
2023-04-09T19:25:28.807Z,3.63
2023-04-09T19:27:55.571Z,3.63
2023-04-09T19:30:22.292Z,3.53
2023-04-09T19:32:48.899Z,4.10
2023-04-09T19:35:15.648Z,3.17
2023-04-09T19:37:42.634Z,3.72
2023-04-09T19:40:09.735Z,4.53
2023-04-09T19:42:36.442Z,4.13
2023-04-09T19:45:03.247Z,3.83
2023-04-09T19:47:29.860Z,4.75
2023-04-09T19:49:56.961Z,4.10
2023-04-09T19:52:23.486Z,4.43
2023-04-09T19:54:55.042Z,4.57
2023-04-09T19:57:21.962Z,4.13
2023-04-09T19:59:49.869Z,2.70
2023-04-09T20:02:16.904Z,2.95
2023-04-09T20:04:43.690Z,2.83
2023-04-09T20:07:10.250Z,3.03
2023-04-09T20:09:41.258Z,2.80
2023-04-09T20:12:10.549Z,2.90
2023-04-09T20:14:38.295Z,2.60
2023-04-09T20:17:06.101Z,3.08
2023-04-09T20:19:32.728Z,2.38
2023-04-09T20:22:00.344Z,2.65
2023-04-09T20:24:28.186Z,2.70
2023-04-09T20:26:55.949Z,2.90
2023-04-09T20:29:22.621Z,3.17
2023-04-09T20:31:49.324Z,3.10
2023-04-09T20:34:15.950Z,3.20
2023-04-09T20:36:44.055Z,3.40
2023-04-09T20:39:11.691Z,3.00
2023-04-09T20:41:38.699Z,3.28
2023-04-09T20:44:05.917Z,8.93
2023-04-09T20:46:32.559Z,4.20
2023-04-09T20:48:59.131Z,3.72
2023-04-09T20:51:25.634Z,3.45
2023-04-09T20:53:52.579Z,3.17
2023-04-09T20:56:19.371Z,3.38
2023-04-09T20:58:45.935Z,2.90
2023-04-09T21:01:13.130Z,3.00
2023-04-09T21:03:40.437Z,3.33
2023-04-09T21:06:08.370Z,3.40
2023-04-09T21:08:34.986Z,3.67
2023-04-09T21:11:02.291Z,3.28
2023-04-09T21:13:28.981Z,3.35
2023-04-09T21:15:57.497Z,3.17
2023-04-09T21:18:24.426Z,3.42
2023-04-09T21:20:51.046Z,3.25
2023-04-09T21:23:17.637Z,3.10
2023-04-09T21:25:44.206Z,3.92
2023-04-09T21:28:11.600Z,3.67
2023-04-09T21:30:38.338Z,3.45
2023-04-09T21:33:06.907Z,3.72
2023-04-09T21:35:34.365Z,3.75
2023-04-09T21:38:02.920Z,3.63
2023-04-09T21:40:30.179Z,3.40
2023-04-09T21:42:57.156Z,3.72
2023-04-09T21:45:24.056Z,4.00
2023-04-09T21:47:51.024Z,3.90
2023-04-09T21:50:17.648Z,4.35
2023-04-09T21:52:47.327Z,4.15
2023-04-09T21:55:14.261Z,3.72
2023-04-09T21:57:40.948Z,4.38
2023-04-09T22:00:10.520Z,4.15
2023-04-09T22:02:38.714Z,4.28
2023-04-09T22:05:06.013Z,4.50
2023-04-09T22:07:32.836Z,4.05
2023-04-09T22:09:59.470Z,4.13
2023-04-09T22:12:26.038Z,4.05
2023-04-09T22:14:52.818Z,4.38
2023-04-09T22:17:19.469Z,4.95
2023-04-09T22:19:46.535Z,4.70
2023-04-09T22:22:15.104Z,5.32
2023-04-09T22:24:43.147Z,4.97
2023-04-09T22:27:09.687Z,4.57
2023-04-09T22:29:37.171Z,4.50
2023-04-09T22:32:04.024Z,4.50
2023-04-09T22:34:30.690Z,4.05
2023-04-09T22:36:57.409Z,4.10
2023-04-09T22:39:24.071Z,4.65
2023-04-09T22:41:50.634Z,4.68
2023-04-09T22:44:17.462Z,4.03
2023-04-09T22:46:44.258Z,4.20
2023-04-09T22:49:11.845Z,4.45
2023-04-09T22:51:40.921Z,4.05
2023-04-09T22:54:08.363Z,4.35
2023-04-09T22:56:36.635Z,3.95
2023-04-09T22:59:03.434Z,4.63
2023-04-09T23:01:30.178Z,4.18
2023-04-09T23:03:56.769Z,4.05
2023-04-09T23:06:25.105Z,4.35
2023-04-09T23:08:51.969Z,3.78
2023-04-09T23:11:18.679Z,3.85
2023-04-09T23:13:45.388Z,3.88
2023-04-09T23:16:12.200Z,3.75
2023-04-09T23:18:38.820Z,3.47
2023-04-09T23:21:09.264Z,3.90
2023-04-09T23:23:36.502Z,3.83
2023-04-09T23:26:03.544Z,3.75
2023-04-09T23:28:30.621Z,3.72
2023-04-09T23:30:57.325Z,3.60
2023-04-09T23:33:24.192Z,3.58
2023-04-09T23:35:51.083Z,3.72
2023-04-09T23:38:17.682Z,3.67
2023-04-09T23:40:44.251Z,3.95
2023-04-09T23:43:11.196Z,3.83
2023-04-09T23:45:37.783Z,3.65
2023-04-09T23:48:06.231Z,4.18
2023-04-09T23:50:32.971Z,4.13
2023-04-09T23:53:03.873Z,3.35
2023-04-09T23:57:57.274Z,3.63
